KDAG/DAG METAR and TAF weather

Enter ICAO airport designator
Station Type Date Time Source
KDAG METAR 2020/07/06 22:50 UTC NOAA

KDAG 062250Z AUTO 27016G25KT 10SM CLR 42/M06 A2979 RMK AO2 PK WND 28026/2240 SLP055 T04171056


Station Type Date Time Source
KDAG Decoded METAR 2020/07/06 22:50 UTC NOAA

BARSTOW-DAGGETT AIRPORT, CA, United States (KDAG) 34-51N 116-47W 587M
Jul 06, 2020 - 06:50 PM EDT / 2020.07.06 2250 UTC
Wind: from the W (270 degrees) at 18 MPH (16 KT) gusting to 29 MPH (25 KT):0
Visibility: 10 mile(s):0
Sky conditions: clear
Temperature: 107.1 F (41.7 C)
Dew Point: 21.9 F (-5.6 C)
Relative Humidity: 4%
Pressure (altimeter): 29.79 in. Hg (1008 hPa)
ob: KDAG 062250Z AUTO 27016G25KT 10SM CLR 42/M06 A2979 RMK AO2 PK WND 28026/2240 SLP055 T04171056
cycle: 23

Station Type Date Time Source
KDAG TAF 2020/07/06 18:27 UTC NOAA

TAF KDAG 061721Z 0618/0718 30011KT P6SM SKC
FM062100 27013G20KT P6SM SKC
FM070100 25018G25KT P6SM SKC
FM070800 26013KT P6SM SKC
FM071500 27016G24KT P6SM SKC

Example: see airport list